Seven Pines, Texas
Current Conditions -  °F | °C
As of 6:55 AM on Friday 31 Oct 2014 (Local Time) from KOSA Reporting Station
Clear Clear  
Wind Chill: 51°   Ceiling: Unl
Heat Index: 51°   Visibility: 10mi
Dew Point: 43°   Wind: 9mph
Humidity: 73%   Direction: 310°NW
Pressure: 30.19"   Gusts: NA
Location:  32.7353°N, 94.9492°W
Report Text: KOSA 311155Z AUTO 31008KT 10SM CLR 11/06 A3019 RMK AO1 T01060060 10143 20106
Loading
Personal Weather Stations






























Interactive Weather Map
Tropical Storm Tracking
New forecast layout! Learn more

10-Day Weather Forecast

Advertisements
Track Severe Weather on mobile